Yuryuzan', Russia
Current Conditions -  °F | °C
As of 11:30 PM on Thursday 27 Nov 2014 (Local Time) from USCM Reporting Station
Scattered Clouds Scattered Clouds  
Wind Chill: -4°   Ceiling: Unl
Heat Index:   Visibility: 5mi
Dew Point:   Wind: 4mph
Humidity: 85%   Direction: NA
Pressure: 30.5"   Gusts: NA
Location:  54.45°N, 58.46°E
Report Text: USCM 271830Z VRB02MPS 8000 SCT100 M15/M17 Q1033 NOSIG 19090060RMK QFE736
Loading
Personal Weather Stations






























Interactive Weather Map New forecast layout! Learn more

10-Day Weather Forecast

Advertisements
Track Severe Weather on mobile